Time;durP1;ratioP1;P1;durP2;ratioP2;P2;SDS_P1;SDS_P2;PMS_P1;PMS_P2;Temp;Humidity;BMP_temperature;BMP_pressure;BME280_temperature;BME280_humidity;BME280_pressure;Samples;Min_cycle;Max_cycle;Signal;HPM_P1;HPM_P2
2021/09/26 00:00:45;;;;;;;39.75;19.30;;;;;;;16.53;100.00;101314.25;5095789;28;20122;-62
2021/09/26 00:03:10;;;;;;;37.83;19.63;;;;;;;16.49;100.00;101311.19;5095409;28;20051;-62
2021/09/26 00:05:36;;;;;;;41.50;22.10;;;;;;;16.53;100.00;101308.88;5077413;28;20058;-62
2021/09/26 00:08:01;;;;;;;38.47;19.98;;;;;;;16.52;100.00;101300.97;5094505;28;20276;-62
2021/09/26 00:10:27;;;;;;;32.08;19.33;;;;;;;16.55;100.00;101305.91;5076948;28;20044;-62
2021/09/26 00:12:52;;;;;;;37.10;19.80;;;;;;;16.53;100.00;101302.63;5060604;28;20070;-58
2021/09/26 00:15:21;;;;;;;38.13;20.33;;;;;;;16.57;100.00;101295.72;5095422;28;20482;-61
2021/09/26 00:17:48;;;;;;;36.17;18.60;;;;;;;16.54;100.00;101302.41;5096674;28;20032;-62
2021/09/26 00:20:15;;;;;;;29.33;17.67;;;;;;;16.55;100.00;101312.16;5092451;28;20612;-59
2021/09/26 00:22:41;;;;;;;31.33;18.23;;;;;;;16.53;100.00;101313.41;5068485;28;20359;-62
2021/09/26 00:25:08;;;;;;;34.53;18.05;;;;;;;16.52;100.00;101317.16;5074696;28;20356;-62
2021/09/26 00:27:34;;;;;;;33.77;18.60;;;;;;;16.51;100.00;101318.22;5074634;28;20075;-62
2021/09/26 00:30:00;;;;;;;36.20;19.15;;;;;;;16.51;100.00;101310.13;5075113;28;20281;-61
2021/09/26 00:32:25;;;;;;;39.03;18.65;;;;;;;16.54;100.00;101307.81;5057094;28;20041;-62
2021/09/26 00:34:51;;;;;;;35.97;18.95;;;;;;;16.56;100.00;101316.50;5075091;28;20144;-62
2021/09/26 00:37:16;;;;;;;34.40;20.00;;;;;;;16.54;100.00;101313.22;5074868;28;20334;-62
2021/09/26 00:39:42;;;;;;;32.70;19.27;;;;;;;16.54;100.00;101309.66;5074471;28;20036;-63
2021/09/26 00:42:08;;;;;;;33.28;19.20;;;;;;;16.50;100.00;101314.72;5074486;28;20047;-61
2021/09/26 00:44:33;;;;;;;33.28;18.23;;;;;;;16.47;100.00;101321.38;5074034;28;20041;-62
2021/09/26 00:46:59;;;;;;;29.63;17.05;;;;;;;16.45;100.00;101318.06;5074095;28;20477;-63
2021/09/26 00:49:25;;;;;;;29.88;17.38;;;;;;;16.43;100.00;101314.78;5056563;28;20391;-61
2021/09/26 00:51:51;;;;;;;;;;;;;;;16.42;100.00;101313.13;5057139;28;20072;-62
2021/09/26 00:54:17;;;;;;;35.57;17.87;;;;;;;16.36;100.00;101316.69;5074260;28;19915;-62
2021/09/26 00:56:47;;;;;;;32.25;18.75;;;;;;;16.32;100.00;101312.78;5074114;28;20139;-61
2021/09/26 00:59:14;;;;;;;31.87;18.60;;;;;;;16.29;100.00;101307.84;5056247;28;20040;-61
2021/09/26 01:01:39;;;;;;;29.43;17.57;;;;;;;16.23;100.00;101308.75;5039929;28;20649;-62
2021/09/26 01:04:05;;;;;;;32.72;18.20;;;;;;;16.19;100.00;101311.03;5073830;28;20040;-61
2021/09/26 01:06:55;;;;;;;31.85;18.13;;;;;;;16.15;100.00;101297.19;5056234;28;20098;-62
2021/09/26 01:09:56;;;;;;;36.67;19.93;;;;;;;16.13;100.00;101304.66;5056253;28;20170;-61
2021/09/26 01:12:28;;;;;;;33.30;18.77;;;;;;;16.11;100.00;101305.94;5060079;28;20278;-62
2021/09/26 01:15:03;;;;;;;32.27;18.87;;;;;;;16.04;100.00;101300.59;5078817;28;20629;-62
2021/09/26 01:17:38;;;;;;;32.30;19.30;;;;;;;16.02;100.00;101297.28;5061656;28;20280;-62
2021/09/26 01:20:46;;;;;;;35.97;18.67;;;;;;;15.99;100.00;101292.34;5080405;28;20300;-62
2021/09/26 01:23:20;;;;;;;32.17;18.33;;;;;;;15.99;100.00;101292.34;5079356;28;20273;-62
2021/09/26 01:26:07;;;;;;;33.47;18.30;;;;;;;15.99;100.00;101290.47;5060450;28;20044;-62
2021/09/26 01:28:51;;;;;;;37.30;20.65;;;;;;;15.99;100.00;101289.66;5060233;28;20274;-62
2021/09/26 01:31:45;;;;;;;38.53;18.23;;;;;;;15.95;100.00;101286.56;5079372;28;20065;-62
2021/09/26 01:34:15;;;;;;;38.23;18.77;;;;;;;15.97;100.00;101280.94;5077540;28;20416;-62
2021/09/26 01:37:13;;;;;;;32.77;18.33;;;;;;;15.96;100.00;101276.59;5076749;28;20310;-62
2021/09/26 01:39:46;;;;;;;33.65;18.42;;;;;;;16.01;100.00;101284.84;5073463;28;20446;-62
2021/09/26 01:42:33;;;;;;;35.00;18.50;;;;;;;15.96;100.00;101271.22;5073545;28;20037;-61
2021/09/26 01:45:14;;;;;;;33.00;18.23;;;;;;;15.96;100.00;101292.78;5073777;28;20660;-63
2021/09/26 01:47:48;;;;;;;33.63;19.43;;;;;;;15.97;100.00;101289.03;5076339;28;20043;-62
2021/09/26 01:50:15;;;;;;;33.73;18.77;;;;;;;15.91;100.00;101279.97;5057516;28;20277;-62
2021/09/26 01:52:45;;;;;;;39.40;19.67;;;;;;;15.93;100.00;101287.84;5055924;28;20298;-61
2021/09/26 01:55:12;;;;;;;38.77;18.43;;;;;;;15.89;100.00;101271.25;5065552;28;20277;-62
2021/09/26 01:57:39;;;;;;;36.60;19.77;;;;;;;15.85;100.00;101272.72;5057425;28;20253;-60
2021/09/26 02:00:07;;;;;;;33.13;18.60;;;;;;;15.85;100.00;101287.03;5094924;28;20296;-63
2021/09/26 02:02:38;;;;;;;38.63;19.13;;;;;;;15.75;100.00;101267.81;5095476;28;20275;-62
2021/09/26 02:05:06;;;;;;;33.13;17.80;;;;;;;15.75;100.00;101271.31;5095364;28;20402;-62
2021/09/26 02:07:38;;;;;;;33.80;19.07;;;;;;;15.77;100.00;101287.31;5061320;28;20476;-61
2021/09/26 02:10:05;;;;;;;36.43;19.03;;;;;;;15.72;100.00;101287.94;5095137;28;20287;-62
2021/09/26 02:12:32;;;;;;;34.20;18.03;;;;;;;15.69;100.00;101274.91;5093584;28;20279;-63
2021/09/26 02:15:01;;;;;;;34.73;18.87;;;;;;;15.63;100.00;101267.69;5075370;28;20276;-61
2021/09/26 02:17:27;;;;;;;32.70;18.57;;;;;;;15.75;100.00;101267.81;5073759;28;20737;-62
2021/09/26 02:19:59;;;;;;;34.40;19.20;;;;;;;15.63;100.00;101262.31;5073327;28;20295;-62
2021/09/26 02:22:27;;;;;;;33.10;17.77;;;;;;;15.59;100.00;101270.00;5073304;28;20041;-62
2021/09/26 02:24:53;;;;;;;31.80;18.10;;;;;;;15.71;100.00;101256.63;5055312;28;20307;-61
2021/09/26 02:27:19;;;;;;;36.60;18.57;;;;;;;15.51;100.00;101256.78;5072553;28;20360;-61
2021/09/26 02:29:44;;;;;;;32.50;18.67;;;;;;;15.48;100.00;101257.25;5074186;28;20547;-66
2021/09/26 02:32:10;;;;;;;36.05;18.75;;;;;;;15.49;100.00;101267.78;5075882;28;20450;-59
2021/09/26 02:34:35;;;;;;;33.08;19.23;;;;;;;15.45;100.00;101263.88;5073680;28;20472;-63
2021/09/26 02:37:01;;;;;;;38.65;20.05;;;;;;;15.47;100.00;101264.47;5055499;28;20060;-62
2021/09/26 02:39:27;;;;;;;38.78;19.27;;;;;;;15.49;100.00;101258.88;5072575;28;20113;-63
2021/09/26 02:42:38;;;;;;;39.35;18.92;;;;;;;16.37;100.00;101250.88;5055483;28;20498;-66
2021/09/26 02:45:06;;;;;;;33.07;18.53;;;;;;;15.55;100.00;101258.00;5072666;28;20040;-62
2021/09/26 02:47:39;;;;;;;34.83;19.90;;;;;;;15.51;100.00;101259.50;5072848;28;20269;-62
2021/09/26 02:50:06;;;;;;;30.30;17.27;;;;;;;15.48;100.00;101251.84;5079834;28;20280;-62
2021/09/26 02:52:31;;;;;;;;;;;;;;;15.48;100.00;101255.34;5074880;28;20347;-62
2021/09/26 02:54:57;;;;;;;31.67;17.77;;;;;;;15.43;100.00;101255.19;5075017;28;19999;-62
2021/09/26 02:57:23;;;;;;;35.13;20.50;;;;;;;15.48;100.00;101263.44;5074621;28;20082;-61
2021/09/26 02:59:49;;;;;;;38.08;19.60;;;;;;;15.48;100.00;101271.53;5074517;28;20071;-63
2021/09/26 03:02:15;;;;;;;36.28;19.42;;;;;;;15.50;100.00;101265.94;5092084;28;20047;-62
2021/09/26 03:04:45;;;;;;;30.15;18.38;;;;;;;15.56;100.00;101261.50;5074495;28;20433;-62
2021/09/26 03:07:12;;;;;;;35.70;18.40;;;;;;;15.59;100.00;101264.59;5094432;28;20043;-61
2021/09/26 03:09:38;;;;;;;33.53;17.30;;;;;;;15.68;100.00;101280.50;5096156;28;20279;-62
2021/09/26 03:12:30;;;;;;;30.45;17.67;;;;;;;15.72;100.00;101276.34;5096492;28;20284;-61
2021/09/26 03:14:55;;;;;;;33.13;17.60;;;;;;;15.81;100.00;101268.81;5073845;28;20098;-62
2021/09/26 03:17:21;;;;;;;30.73;17.35;;;;;;;15.78;100.00;101261.97;5096081;28;20268;-61
2021/09/26 03:19:47;;;;;;;30.80;15.73;;;;;;;15.84;100.00;101254.91;5096439;28;20051;-61
2021/09/26 03:22:13;;;;;;;29.65;17.40;;;;;;;15.87;100.00;101255.25;5096426;28;20384;-62
2021/09/26 03:24:39;;;;;;;33.38;18.00;;;;;;;15.84;100.00;101241.41;5096728;28;20472;-62
2021/09/26 03:27:09;;;;;;;28.03;15.83;;;;;;;15.83;100.00;101255.94;5062172;28;20146;-62
2021/09/26 03:29:37;;;;;;;30.17;16.87;;;;;;;15.85;100.00;101253.84;5096608;28;20265;-62
2021/09/26 03:32:03;;;;;;;34.63;18.07;;;;;;;15.86;100.00;101256.31;5096488;28;20359;-62
2021/09/26 03:34:29;;;;;;;29.05;16.48;;;;;;;15.85;100.00;101254.66;5096405;28;20771;-62
2021/09/26 03:36:54;;;;;;;28.83;16.15;;;;;;;15.84;100.00;101252.19;5096532;28;20460;-63
2021/09/26 03:39:20;;;;;;;43.72;16.90;;;;;;;15.76;100.00;101256.00;5078251;28;20388;-61
2021/09/26 03:41:46;;;;;;;30.08;16.90;;;;;;;15.76;100.00;101246.00;5078202;28;20048;-62
2021/09/26 03:44:11;;;;;;;28.20;16.40;;;;;;;15.80;100.00;101246.41;5078542;28;20506;-62
2021/09/26 03:46:37;;;;;;;30.00;16.40;;;;;;;15.71;100.00;101240.47;5096495;28;20046;-62
2021/09/26 03:49:03;;;;;;;29.63;16.75;;;;;;;15.75;100.00;101238.16;5096206;28;20120;-64
2021/09/26 03:51:28;;;;;;;36.92;16.88;;;;;;;15.77;100.00;101250.34;5096071;28;20479;-62
2021/09/26 03:53:54;;;;;;;28.02;16.23;;;;;;;15.77;100.00;101238.75;5095631;28;20339;-63
2021/09/26 03:56:20;;;;;;;25.38;15.73;;;;;;;15.79;100.00;101231.28;5077627;28;20039;-62
2021/09/26 03:58:45;;;;;;;30.55;16.77;;;;;;;15.83;100.00;101228.97;5095771;28;20031;-63
2021/09/26 04:01:11;;;;;;;28.48;17.00;;;;;;;15.80;100.00;101234.78;5095255;28;20047;-63
2021/09/26 04:03:37;;;;;;;33.38;17.00;;;;;;;15.84;100.00;101238.72;5077685;28;20438;-62
2021/09/26 04:06:06;;;;;;;25.30;16.30;;;;;;;15.74;100.00;101233.81;5095653;28;20079;-62
2021/09/26 04:08:32;;;;;;;28.93;16.20;;;;;;;15.75;100.00;101235.47;5095965;28;20048;-61
2021/09/26 04:10:57;;;;;;;30.05;16.92;;;;;;;15.78;100.00;101225.03;5078390;28;20280;-63
2021/09/26 04:13:23;;;;;;;28.33;17.30;;;;;;;15.78;100.00;101233.13;5096134;28;20059;-60
2021/09/26 04:15:48;;;;;;;27.83;16.48;;;;;;;15.77;100.00;101234.19;5096384;28;20036;-64
2021/09/26 04:18:13;;;;;;;28.40;16.10;;;;;;;15.82;100.00;101232.72;5076602;28;20107;-62
2021/09/26 04:20:39;;;;;;;26.67;16.60;;;;;;;15.75;100.00;101238.97;5060521;28;20328;-62
2021/09/26 04:23:04;;;;;;;23.42;15.50;;;;;;;15.83;100.00;101237.88;5095197;28;20256;-62
2021/09/26 04:25:30;;;;;;;32.15;16.55;;;;;;;15.81;100.00;101237.28;5059942;28;20529;-60
2021/09/26 04:27:58;;;;;;;26.30;15.37;;;;;;;15.78;100.00;101235.03;5078319;28;20040;-62
2021/09/26 04:30:23;;;;;;;30.10;16.73;;;;;;;15.78;100.00;101240.41;5095275;28;20491;-63
2021/09/26 04:32:49;;;;;;;25.45;15.50;;;;;;;15.83;100.00;101242.47;5095488;28;20265;-61
2021/09/26 04:35:14;;;;;;;28.88;16.52;;;;;;;15.82;100.00;101236.22;5094932;28;20441;-62
2021/09/26 04:37:40;;;;;;;31.35;16.65;;;;;;;15.81;100.00;101236.47;5094689;28;20474;-63
2021/09/26 04:40:06;;;;;;;26.95;16.08;;;;;;;15.92;100.00;101233.06;5094714;28;20456;-61
2021/09/26 04:42:32;;;;;;;33.50;16.77;;;;;;;15.86;100.00;101234.72;5094646;28;20096;-63
2021/09/26 04:44:59;;;;;;;32.72;16.10;;;;;;;15.83;100.00;101234.38;5094889;28;20265;-62
2021/09/26 04:47:25;;;;;;;31.77;16.40;;;;;;;15.95;100.00;101231.81;5053752;28;20045;-63
2021/09/26 04:49:51;;;;;;;37.78;16.85;;;;;;;15.73;100.00;101235.66;5052459;28;20289;-63
2021/09/26 04:52:16;;;;;;;28.88;17.02;;;;;;;15.69;100.00;101239.06;5052169;28;20448;-63
2021/09/26 04:54:42;;;;;;;29.95;17.73;;;;;;;15.72;100.00;101249.38;5035402;28;20045;-62
2021/09/26 04:57:07;;;;;;;28.25;17.58;;;;;;;15.65;100.00;101243.19;5035366;28;20072;-62
2021/09/26 04:59:33;;;;;;;30.40;17.60;;;;;;;15.59;100.00;101240.34;5051732;28;20500;-61
2021/09/26 05:01:58;;;;;;;34.00;19.48;;;;;;;15.54;100.00;101245.56;5051908;28;20044;-63
2021/09/26 05:04:24;;;;;;;36.55;19.52;;;;;;;15.51;100.00;101247.88;5035211;28;20041;-62
2021/09/26 05:06:49;;;;;;;39.23;22.27;;;;;;;15.53;100.00;101235.84;5051968;28;20051;-62
2021/09/26 05:09:15;;;;;;;39.22;21.70;;;;;;;15.55;100.00;101241.84;5018195;28;20282;-61
2021/09/26 05:11:40;;;;;;;40.80;22.20;;;;;;;15.59;100.00;101239.53;5035229;28;20152;-61
2021/09/26 05:14:06;;;;;;;43.72;24.10;;;;;;;15.48;100.00;101241.06;5035199;28;20049;-62
2021/09/26 05:16:32;;;;;;;37.50;22.55;;;;;;;15.49;100.00;101242.72;5051112;28;20045;-60
2021/09/26 05:18:58;;;;;;;39.70;22.73;;;;;;;15.46;100.00;101252.06;5051764;28;20052;-62
2021/09/26 05:21:23;;;;;;;43.88;22.55;;;;;;;15.44;100.00;101253.31;5034947;28;20045;-61
2021/09/26 05:23:49;;;;;;;42.47;22.33;;;;;;;15.38;100.00;101248.78;5055185;28;20545;-62
2021/09/26 05:26:16;;;;;;;40.90;21.95;;;;;;;15.40;100.00;101247.53;5093861;28;20028;-62
2021/09/26 05:28:42;;;;;;;41.93;22.97;;;;;;;15.54;100.00;101252.81;5075502;28;20048;-61
2021/09/26 05:31:08;;;;;;;38.40;21.33;;;;;;;15.46;100.00;101252.06;5075389;28;20680;-60
2021/09/26 05:33:33;;;;;;;37.67;22.15;;;;;;;15.46;100.00;101251.25;5093729;28;20093;-60
2021/09/26 05:35:59;;;;;;;36.60;22.92;;;;;;;15.38;100.00;101251.50;5093982;28;20032;-62
2021/09/26 05:38:25;;;;;;;40.80;22.58;;;;;;;15.38;100.00;101249.63;5093606;28;20036;-63
2021/09/26 05:40:51;;;;;;;45.65;23.95;;;;;;;15.33;100.00;101257.53;5093696;28;20032;-62
2021/09/26 05:43:17;;;;;;;38.67;22.33;;;;;;;15.33;100.00;101252.97;5075594;28;20051;-62
2021/09/26 05:45:42;;;;;;;40.50;23.05;;;;;;;15.48;100.00;101259.94;5075421;28;20032;-60
2021/09/26 05:48:08;;;;;;;40.45;23.92;;;;;;;15.51;100.00;101267.59;5093805;28;20042;-62
2021/09/26 05:50:34;;;;;;;41.05;24.40;;;;;;;15.55;100.00;101270.66;5093378;28;20066;-59
2021/09/26 05:53:00;;;;;;;43.65;24.15;;;;;;;15.61;100.00;101270.59;5093669;28;20474;-62
2021/09/26 05:55:25;;;;;;;;;;;;;;;15.71;100.00;101264.72;5093671;28;20523;-62
2021/09/26 05:57:51;;;;;;;41.87;22.00;;;;;;;15.71;100.00;101261.22;5092956;28;19916;-62
2021/09/26 06:00:17;;;;;;;38.17;22.35;;;;;;;15.72;100.00;101255.59;5093096;28;20038;-62
2021/09/26 06:02:43;;;;;;;;;;;;;;;15.80;100.00;101259.88;5071985;28;20040;-62
2021/09/26 06:05:10;;;;;;;38.67;21.73;;;;;;;15.76;100.00;101250.59;5062659;28;19915;-64
2021/09/26 06:07:37;;;;;;;37.70;21.07;;;;;;;15.72;100.00;101254.78;5054450;28;20066;-60
2021/09/26 06:10:04;;;;;;;41.57;22.83;;;;;;;15.79;100.00;101250.16;5072928;28;20280;-63
2021/09/26 06:12:30;;;;;;;36.53;21.53;;;;;;;15.84;100.00;101238.72;5054966;28;20826;-63
2021/09/26 06:14:57;;;;;;;34.70;20.43;;;;;;;15.96;100.00;101236.16;5072900;28;20246;-62
2021/09/26 06:17:22;;;;;;;37.33;21.17;;;;;;;15.99;100.00;101227.59;5069880;28;20269;-62
2021/09/26 06:19:49;;;;;;;42.70;22.52;;;;;;;16.14;100.00;101236.16;5092485;28;20313;-62
2021/09/26 06:22:15;;;;;;;45.67;23.15;;;;;;;16.09;100.00;101248.69;5092950;28;20460;-63
2021/09/26 06:24:40;;;;;;;36.33;20.48;;;;;;;15.99;100.00;101257.28;5092550;28;20036;-62
2021/09/26 06:27:06;;;;;;;36.58;20.45;;;;;;;15.93;100.00;101255.47;5093157;28;20484;-62
2021/09/26 06:29:31;;;;;;;35.23;20.67;;;;;;;16.01;100.00;101260.56;5092808;28;20123;-63
2021/09/26 06:31:57;;;;;;;35.27;20.43;;;;;;;16.12;100.00;101259.03;5074734;28;20304;-64
2021/09/26 06:34:22;;;;;;;37.90;21.80;;;;;;;16.20;100.00;101256.88;5074941;28;20616;-61
2021/09/26 06:36:48;;;;;;;33.35;20.40;;;;;;;16.14;100.00;101262.31;5092728;28;20119;-62
2021/09/26 06:39:13;;;;;;;37.47;20.92;;;;;;;16.13;100.00;101269.56;5092581;28;20036;-61
2021/09/26 06:41:39;;;;;;;36.85;20.23;;;;;;;16.17;100.00;101278.91;5093140;28;20545;-62
2021/09/26 06:44:05;;;;;;;37.35;20.63;;;;;;;16.22;100.00;101280.09;5096907;28;20043;-63
2021/09/26 06:46:30;;;;;;;36.70;20.73;;;;;;;16.15;100.00;101280.16;5078948;28;20039;-61
2021/09/26 06:48:56;;;;;;;38.67;19.77;;;;;;;16.24;100.00;101278.00;5078626;28;20059;-61
2021/09/26 06:51:22;;;;;;;42.17;21.35;;;;;;;16.15;100.00;101282.88;5058725;28;20052;-62
2021/09/26 06:53:47;;;;;;;38.97;21.73;;;;;;;16.23;100.00;101281.75;5095618;28;20036;-63
2021/09/26 06:56:13;;;;;;;38.83;20.52;;;;;;;16.31;100.00;101284.16;5078785;28;20040;-62
2021/09/26 06:58:38;;;;;;;35.45;22.35;;;;;;;16.30;100.00;101285.19;5078615;28;20449;-63
2021/09/26 07:01:04;;;;;;;33.58;20.27;;;;;;;16.43;100.00;101281.53;5096296;28;20047;-62
2021/09/26 07:03:30;;;;;;;40.15;21.65;;;;;;;16.45;100.00;101282.13;5097060;28;20039;-63
2021/09/26 07:05:56;;;;;;;40.90;21.38;;;;;;;16.58;100.00;101275.78;5078090;28;20105;-62
2021/09/26 07:08:21;;;;;;;41.38;22.13;;;;;;;16.61;100.00;101291.53;5096701;28;20424;-63
2021/09/26 07:10:47;;;;;;;38.28;21.70;;;;;;;16.68;100.00;101294.16;5096499;28;20047;-62
2021/09/26 07:13:13;;;;;;;41.10;22.08;;;;;;;16.65;100.00;101289.19;5096472;28;20454;-62
2021/09/26 07:15:38;;;;;;;44.55;21.35;;;;;;;16.71;100.00;101291.00;5096736;28;20040;-63
2021/09/26 07:18:04;;;;;;;33.55;21.20;;;;;;;16.78;100.00;101278.25;5086254;28;20045;-62
2021/09/26 07:20:30;;;;;;;42.95;22.23;;;;;;;16.91;100.00;101283.47;5067643;28;20490;-64
2021/09/26 07:23:00;;;;;;;38.00;23.08;;;;;;;16.95;100.00;101283.84;5083108;28;20032;-64
2021/09/26 07:25:28;;;;;;;38.50;22.10;;;;;;;16.92;100.00;101295.13;5084866;28;20063;-62
2021/09/26 07:27:54;;;;;;;34.27;21.37;;;;;;;17.00;100.00;101292.13;5084188;28;20032;-63
2021/09/26 07:30:19;;;;;;;37.28;22.00;;;;;;;17.88;100.00;101293.59;5067880;28;20557;-61
2021/09/26 07:32:45;;;;;;;44.80;23.20;;;;;;;17.28;100.00;101298.81;5084015;28;20040;-59
2021/09/26 07:35:12;;;;;;;40.05;22.25;;;;;;;17.31;100.00;101301.09;5086205;28;20042;-62
2021/09/26 07:37:37;;;;;;;35.57;21.87;;;;;;;17.34;100.00;101306.03;5083764;28;20082;-63
2021/09/26 07:40:04;;;;;;;37.05;22.08;;;;;;;17.41;100.00;101311.31;5083221;28;20020;-64
2021/09/26 07:42:30;;;;;;;37.57;22.17;;;;;;;17.52;100.00;101304.31;5083371;28;20124;-62
2021/09/26 07:45:03;;;;;;;39.53;21.45;;;;;;;17.67;100.00;101312.00;5069880;28;20060;-62
2021/09/26 07:47:30;;;;;;;35.03;20.80;;;;;;;17.77;100.00;101314.16;5084541;28;20048;-61
2021/09/26 07:49:56;;;;;;;37.77;20.87;;;;;;;18.00;100.00;101315.25;5084030;28;20035;-64
2021/09/26 07:52:22;;;;;;;37.80;20.92;;;;;;;18.00;100.00;101316.06;5085736;28;20077;-62
2021/09/26 07:54:48;;;;;;;34.87;19.83;;;;;;;18.92;100.00;101315.69;5083749;28;20036;-59
2021/09/26 07:57:15;;;;;;;32.38;19.42;;;;;;;19.00;100.00;101330.75;5066614;28;20032;-63
2021/09/26 07:59:41;;;;;;;36.90;19.43;;;;;;;18.60;100.00;101329.63;5085599;28;20477;-62
2021/09/26 08:02:07;;;;;;;35.25;21.50;;;;;;;18.63;100.00;101339.97;5065477;28;20033;-62
2021/09/26 08:04:33;;;;;;;30.83;18.85;;;;;;;18.62;100.00;101341.03;5084699;28;20055;-63
2021/09/26 08:06:59;;;;;;;30.43;18.37;;;;;;;18.61;100.00;101342.09;5067528;28;20040;-61
2021/09/26 08:09:26;;;;;;;36.03;17.90;;;;;;;18.62;100.00;101341.03;5062719;28;20072;-62
2021/09/26 08:11:52;;;;;;;34.55;19.40;;;;;;;18.64;100.00;101336.22;5084626;28;20079;-62
2021/09/26 08:14:17;;;;;;;37.58;19.02;;;;;;;18.63;100.00;101332.69;5085366;28;20040;-62
2021/09/26 08:16:43;;;;;;;34.97;18.58;;;;;;;18.72;100.00;101325.03;5083091;28;20040;-61
2021/09/26 08:19:08;;;;;;;34.22;19.83;;;;;;;18.97;100.00;101315.78;5050128;28;20032;-61
2021/09/26 08:21:34;;;;;;;37.33;19.60;;;;;;;18.97;100.00;101318.50;5048001;28;20044;-63
2021/09/26 08:23:59;;;;;;;30.52;18.77;;;;;;;19.06;100.00;101327.91;5077369;28;20146;-62
2021/09/26 08:26:25;;;;;;;34.55;18.77;;;;;;;19.08;100.00;101324.97;5066289;28;20041;-60
2021/09/26 08:28:51;;;;;;;29.73;18.52;;;;;;;19.22;100.00;101325.50;5085106;28;20516;-62
2021/09/26 08:31:17;;;;;;;34.90;20.75;;;;;;;19.24;100.00;101323.38;5083672;28;20479;-62
2021/09/26 08:33:43;;;;;;;33.13;19.40;;;;;;;19.58;100.00;101339.72;5066160;28;20039;-62
2021/09/26 08:36:08;;;;;;;28.90;19.13;;;;;;;19.69;100.00;101339.91;5081623;28;20028;-62
2021/09/26 08:38:34;;;;;;;28.77;17.60;;;;;;;19.95;100.00;101337.66;5080885;28;20123;-63
2021/09/26 08:40:59;;;;;;;29.77;18.38;;;;;;;20.19;100.00;101341.84;5094298;28;20484;-62
2021/09/26 08:43:25;;;;;;;29.73;18.15;;;;;;;20.70;100.00;101348.25;5094676;28;20060;-62
2021/09/26 08:45:50;;;;;;;32.10;19.30;;;;;;;21.13;100.00;101340.38;5095012;28;20036;-61
2021/09/26 08:48:16;;;;;;;27.92;17.55;;;;;;;21.42;100.00;101345.56;5076119;28;20040;-62
2021/09/26 08:50:44;;;;;;;25.05;16.05;;;;;;;21.82;100.00;101338.91;5076475;28;20036;-62
2021/09/26 08:53:09;;;;;;;25.87;16.20;;;;;;;22.28;100.00;101326.72;5088577;28;20508;-61
2021/09/26 08:55:35;;;;;;;24.50;15.13;;;;;;;22.64;100.00;101337.88;5074104;28;20040;-61
2021/09/26 08:58:01;;;;;;;21.83;13.98;;;;;;;22.81;100.00;101334.09;5073657;28;20025;-62
2021/09/26 09:00:27;;;;;;;;;;;;;;;23.34;100.00;101348.50;5074301;28;20045;-62
2021/09/26 09:02:53;;;;;;;21.17;14.10;;;;;;;23.98;100.00;101355.63;5074132;28;20002;-62
2021/09/26 09:05:33;;;;;;;23.27;14.73;;;;;;;23.89;100.00;101350.75;5055163;28;20047;-62
2021/09/26 09:08:04;;;;;;;22.33;14.00;;;;;;;24.42;100.00;101349.59;5073635;28;20055;-61
2021/09/26 09:10:39;;;;;;;21.37;12.70;;;;;;;24.86;100.00;101364.56;5074086;28;20491;-62
2021/09/26 09:13:10;;;;;;;22.63;13.50;;;;;;;25.00;100.00;101362.03;5073510;28;20059;-61
2021/09/26 09:15:37;;;;;;;18.93;12.17;;;;;;;25.12;100.00;101349.91;5073537;28;20044;-63
2021/09/26 09:18:06;;;;;;;20.60;12.80;;;;;;;25.16;100.00;101351.00;5073425;28;20568;-63
2021/09/26 09:20:34;;;;;;;23.07;12.87;;;;;;;25.19;100.00;101350.44;5073580;28;20036;-62
2021/09/26 09:23:11;;;;;;;18.30;12.10;;;;;;;25.41;100.00;101351.97;5055523;28;20021;-63
2021/09/26 09:25:39;;;;;;;19.27;12.85;;;;;;;25.60;100.00;101361.16;5073101;28;20051;-62
2021/09/26 09:28:08;;;;;;;19.70;12.48;;;;;;;25.77;100.00;101360.75;5073078;28;20035;-62
2021/09/26 09:30:45;;;;;;;21.17;12.57;;;;;;;26.32;100.00;101361.69;5055737;28;20037;-62
2021/09/26 09:33:11;;;;;;;21.58;12.60;;;;;;;26.76;100.00;101368.88;5055287;28;20076;-62
2021/09/26 09:35:48;;;;;;;23.92;13.15;;;;;;;26.62;100.00;101362.44;5073341;28;20055;-63
2021/09/26 09:38:35;;;;;;;20.13;12.80;;;;;;;26.56;100.00;101374.59;5073242;28;20072;-63
2021/09/26 09:41:02;;;;;;;21.55;12.32;;;;;;;26.63;100.00;101370.34;5072799;28;20061;-61
2021/09/26 09:43:27;;;;;;;18.73;12.52;;;;;;;26.57;100.00;101377.00;5073065;28;20040;-63
2021/09/26 09:45:58;;;;;;;18.45;11.85;;;;;;;27.40;100.00;101370.50;5054701;28;20051;-61
2021/09/26 09:48:33;;;;;;;16.08;11.13;;;;;;;27.33;100.00;101373.63;5072836;28;20029;-62
2021/09/26 09:51:04;;;;;;;19.70;12.32;;;;;;;27.24;100.00;101378.16;5080504;28;20162;-61
2021/09/26 09:53:34;;;;;;;21.05;12.70;;;;;;;27.28;100.00;101372.88;5065702;28;20123;-61
2021/09/26 09:56:05;;;;;;;17.08;11.38;;;;;;;28.38;99.28;101370.88;5081148;28;20388;-61
2021/09/26 09:58:44;;;;;;;16.20;11.70;;;;;;;28.38;94.94;101386.53;5080718;28;20040;-61
2021/09/26 10:01:13;;;;;;;18.02;12.35;;;;;;;28.47;94.17;101384.72;5082245;28;20032;-61
2021/09/26 10:03:47;;;;;;;21.15;13.60;;;;;;;28.35;95.05;101382.47;5080761;28;20029;-62
2021/09/26 10:06:40;;;;;;;22.67;13.00;;;;;;;28.68;92.03;101385.13;5080283;28;20562;-62
2021/09/26 10:09:22;;;;;;;20.67;12.70;;;;;;;28.74;89.41;101388.63;5068347;28;20067;-61
2021/09/26 10:11:52;;;;;;;18.88;11.95;;;;;;;29.05;86.32;101379.72;5081536;28;20044;-62
2021/09/26 10:14:18;;;;;;;19.52;12.63;;;;;;;29.04;85.75;101384.41;5081567;28;20028;-63
2021/09/26 10:16:45;;;;;;;22.60;12.77;;;;;;;29.13;85.67;101387.25;5083372;28;20103;-62
2021/09/26 10:19:11;;;;;;;18.55;12.18;;;;;;;29.77;80.52;101382.81;5082547;28;20089;-61
2021/09/26 10:21:38;;;;;;;18.52;12.55;;;;;;;30.92;69.06;101403.50;5083341;28;20472;-62
2021/09/26 10:24:04;;;;;;;19.23;11.93;;;;;;;30.84;68.90;101398.75;5081974;28;20070;-63
2021/09/26 10:26:30;;;;;;;18.42;12.93;;;;;;;30.59;69.93;101396.41;5082320;28;20064;-63
2021/09/26 10:28:58;;;;;;;17.92;11.77;;;;;;;30.22;70.28;101398.50;5081806;28;20102;-61
2021/09/26 10:31:27;;;;;;;18.08;11.77;;;;;;;31.32;65.58;101391.56;5080943;28;20146;-63
2021/09/26 10:33:56;;;;;;;18.20;11.95;;;;;;;31.03;65.70;101398.50;5080507;28;20060;-62
2021/09/26 10:36:23;;;;;;;15.10;11.10;;;;;;;30.73;65.26;101385.28;5065020;28;20039;-61
2021/09/26 10:38:50;;;;;;;14.40;11.27;;;;;;;29.94;69.59;101384.03;5082415;28;20036;-63
2021/09/26 10:41:17;;;;;;;15.70;11.25;;;;;;;31.03;64.07;101399.28;5079393;28;20040;-62
2021/09/26 10:43:43;;;;;;;16.35;10.52;;;;;;;31.24;63.35;101393.19;5080981;28;20033;-61
2021/09/26 10:46:23;;;;;;;15.75;11.35;;;;;;;31.24;62.09;101390.41;5080145;28;20059;-61
2021/09/26 10:49:15;;;;;;;16.63;10.85;;;;;;;30.62;63.95;101394.97;5081839;28;20036;-62
2021/09/26 10:51:58;;;;;;;14.77;10.35;;;;;;;29.63;69.61;101399.38;5061389;28;20464;-62
2021/09/26 10:54:36;;;;;;;14.38;10.52;;;;;;;30.11;65.10;101391.63;5081934;28;20073;-62
2021/09/26 10:57:08;;;;;;;18.35;11.10;;;;;;;29.60;71.15;101403.59;5047801;28;20048;-61
2021/09/26 10:59:41;;;;;;;18.35;11.75;;;;;;;30.13;68.16;101408.69;5080202;28;20044;-62
2021/09/26 11:02:27;;;;;;;16.92;10.13;;;;;;;30.42;65.95;101399.88;5079410;28;20475;-61
2021/09/26 11:04:56;;;;;;;14.98;10.60;;;;;;;30.14;66.00;101405.59;5081902;28;20043;-61
2021/09/26 11:07:23;;;;;;;14.60;10.45;;;;;;;29.80;71.59;101409.72;5082138;28;20052;-62
2021/09/26 11:09:53;;;;;;;15.85;11.65;;;;;;;30.73;64.37;101396.31;5081091;28;20036;-62